createdAt,value
2022-12-25T00:00:21.167Z,53.60
2022-12-25T00:02:49.619Z,50.67
2022-12-25T00:05:18.049Z,54.57
2022-12-25T00:07:46.201Z,54.13
2022-12-25T00:10:14.570Z,57.20
2022-12-25T00:12:44.116Z,53.27
2022-12-25T00:15:12.459Z,57.30
2022-12-25T00:17:40.623Z,61.33
2022-12-25T00:20:10.254Z,57.50
2022-12-25T00:22:39.611Z,62.53
2022-12-25T00:25:08.246Z,58.40
2022-12-25T00:27:37.841Z,54.20
2022-12-25T00:30:09.229Z,58.40
2022-12-25T00:32:37.737Z,61.83
2022-12-25T00:35:07.053Z,67.30
2022-12-25T00:37:35.178Z,62.37
2022-12-25T00:40:03.543Z,57.07
2022-12-25T00:42:31.941Z,57.20
2022-12-25T00:45:01.505Z,58.77
2022-12-25T00:47:31.409Z,59.30
2022-12-25T00:49:59.578Z,52.07
2022-12-25T00:52:27.722Z,56.83
2022-12-25T00:54:55.892Z,55.67
2022-12-25T00:57:24.101Z,53.17
2022-12-25T00:59:52.320Z,58.17
2022-12-25T01:02:26.331Z,51.90
2022-12-25T01:04:57.776Z,58.37
2022-12-25T01:07:27.355Z,56.43
2022-12-25T01:10:13.048Z,56.77
2022-12-25T01:12:43.310Z,54.33
2022-12-25T01:15:13.577Z,56.07
2022-12-25T01:17:43.052Z,58.93
2022-12-25T01:20:14.008Z,60.03
2022-12-25T01:22:42.302Z,54.67
2022-12-25T01:25:11.809Z,55.00
2022-12-25T01:27:40.209Z,55.70
2022-12-25T01:30:09.469Z,56.30
2022-12-25T01:32:37.640Z,59.80
2022-12-25T01:35:06.580Z,58.60
2022-12-25T01:37:36.200Z,55.67
2022-12-25T01:40:04.816Z,56.57
2022-12-25T01:42:33.195Z,55.50
2022-12-25T01:45:31.124Z,56.40
2022-12-25T01:47:59.833Z,59.13
2022-12-25T01:50:28.891Z,60.93
2022-12-25T01:52:59.741Z,57.47
2022-12-25T01:55:29.009Z,59.73
2022-12-25T01:57:57.965Z,58.80
2022-12-25T02:00:26.412Z,57.80
2022-12-25T02:02:55.039Z,62.20
2022-12-25T02:05:26.812Z,56.37
2022-12-25T02:07:55.677Z,57.90
2022-12-25T02:10:25.374Z,59.77
2022-12-25T02:12:54.064Z,56.73
2022-12-25T02:15:24.488Z,59.10
2022-12-25T02:18:01.639Z,64.13
2022-12-25T02:20:42.112Z,64.63
2022-12-25T02:23:36.641Z,62.53
2022-12-25T02:26:27.272Z,56.77
2022-12-25T02:29:02.923Z,60.50
2022-12-25T02:31:39.664Z,59.27
2022-12-25T02:34:14.446Z,62.47
2022-12-25T02:36:46.877Z,57.23
2022-12-25T02:39:39.209Z,57.90
2022-12-25T02:42:13.565Z,56.33
2022-12-25T02:45:04.304Z,59.60
2022-12-25T02:47:53.798Z,55.37
2022-12-25T02:50:41.297Z,57.00
2022-12-25T02:53:28.196Z,65.03
2022-12-25T02:56:15.585Z,65.43
2022-12-25T02:59:02.676Z,64.13
2022-12-25T03:01:51.680Z,61.03
2022-12-25T03:04:41.952Z,56.50
2022-12-25T03:07:12.679Z,66.23
2022-12-25T03:10:01.569Z,65.53
2022-12-25T03:12:39.398Z,70.67
2022-12-25T03:15:28.838Z,64.60
2022-12-25T03:18:00.661Z,62.80
2022-12-25T03:20:47.530Z,67.10
2022-12-25T03:23:36.428Z,63.03
2022-12-25T03:26:22.462Z,76.63
2022-12-25T03:28:50.611Z,72.80
2022-12-25T03:31:26.646Z,83.57
2022-12-25T03:34:27.029Z,77.50
2022-12-25T03:37:24.818Z,74.87
2022-12-25T03:40:20.202Z,85.13
2022-12-25T03:43:11.707Z,86.53
2022-12-25T03:46:02.181Z,74.83
2022-12-25T03:48:51.684Z,87.00
2022-12-25T03:51:44.909Z,81.10
2022-12-25T03:54:33.039Z,85.47
2022-12-25T03:57:19.275Z,80.63
2022-12-25T04:00:10.215Z,78.97
2022-12-25T04:02:56.384Z,78.57
2022-12-25T04:05:42.165Z,76.10
2022-12-25T04:08:29.324Z,80.37
2022-12-25T04:11:14.644Z,78.43
2022-12-25T04:14:00.112Z,107.10
2022-12-25T04:16:45.680Z,81.40
2022-12-25T04:19:43.201Z,96.53
2022-12-25T04:22:28.800Z,77.33
2022-12-25T04:25:15.779Z,77.73
2022-12-25T04:28:01.300Z,81.83
2022-12-25T04:30:46.569Z,71.43
2022-12-25T04:33:31.997Z,99.20
2022-12-25T04:36:12.134Z,104.57
2022-12-25T04:38:41.839Z,93.97
2022-12-25T04:41:12.488Z,111.43
2022-12-25T04:43:40.994Z,92.00
2022-12-25T04:46:09.271Z,98.43
2022-12-25T04:48:38.049Z,124.97
2022-12-25T04:51:14.730Z,115.00
2022-12-25T04:53:43.171Z,107.13
2022-12-25T04:56:13.088Z,99.20
2022-12-25T04:58:41.800Z,134.13
2022-12-25T05:01:10.208Z,94.83
2022-12-25T05:03:38.975Z,110.77
2022-12-25T05:06:07.797Z,116.17
2022-12-25T05:08:37.339Z,109.73
2022-12-25T05:11:09.878Z,109.90
2022-12-25T05:13:39.973Z,113.80
2022-12-25T05:16:09.781Z,104.30
2022-12-25T05:18:38.015Z,99.40
2022-12-25T05:21:07.905Z,138.90
2022-12-25T05:23:36.108Z,116.53
2022-12-25T05:26:06.897Z,126.83
2022-12-25T05:28:35.613Z,123.83
2022-12-25T05:31:05.254Z,109.80
2022-12-25T05:33:33.501Z,139.20
2022-12-25T05:36:03.918Z,127.83
2022-12-25T05:38:32.127Z,110.30
2022-12-25T05:41:01.368Z,131.00
2022-12-25T05:43:30.432Z,108.27
2022-12-25T05:45:58.592Z,109.73
2022-12-25T05:48:28.170Z,131.70
2022-12-25T05:50:56.608Z,108.63
2022-12-25T05:53:25.022Z,125.57
2022-12-25T05:55:53.656Z,131.00
2022-12-25T05:58:22.123Z,112.43
2022-12-25T06:00:50.552Z,125.67
2022-12-25T06:03:19.078Z,124.00
2022-12-25T06:05:48.667Z,127.70
2022-12-25T06:08:17.105Z,128.07
2022-12-25T06:10:45.559Z,118.97
2022-12-25T06:13:14.014Z,119.10
2022-12-25T06:15:42.619Z,109.27
2022-12-25T06:18:11.143Z,112.73
2022-12-25T06:20:42.327Z,116.47
2022-12-25T06:23:12.011Z,103.93
2022-12-25T06:25:40.551Z,119.33
2022-12-25T06:28:09.240Z,102.83
2022-12-25T06:30:37.660Z,117.00
2022-12-25T06:33:05.889Z,108.97
2022-12-25T06:35:34.350Z,164.50
2022-12-25T06:38:02.784Z,153.13
2022-12-25T06:40:32.339Z,130.23
2022-12-25T06:43:00.769Z,150.23
2022-12-25T06:45:29.304Z,135.87
2022-12-25T06:47:57.748Z,111.33
2022-12-25T06:50:26.149Z,152.40
2022-12-25T06:52:54.567Z,112.23
2022-12-25T06:55:22.996Z,161.60
2022-12-25T06:57:52.558Z,130.50
2022-12-25T07:00:21.319Z,160.87
2022-12-25T07:02:50.868Z,150.53
2022-12-25T07:05:19.436Z,138.90
2022-12-25T07:07:47.874Z,137.60
2022-12-25T07:10:16.372Z,177.07
2022-12-25T07:12:44.781Z,154.53
2022-12-25T07:15:14.362Z,139.67
2022-12-25T07:17:43.572Z,139.33
2022-12-25T07:20:12.107Z,176.73
2022-12-25T07:22:41.069Z,166.53
2022-12-25T07:25:09.682Z,132.43
2022-12-25T07:27:38.147Z,152.43
2022-12-25T07:30:07.547Z,216.60
2022-12-25T07:32:37.091Z,158.50
2022-12-25T07:35:05.736Z,158.70
2022-12-25T07:37:33.918Z,169.23
2022-12-25T07:40:02.350Z,152.10
2022-12-25T07:42:30.973Z,177.20
2022-12-25T07:44:59.417Z,191.47
2022-12-25T07:47:27.797Z,220.33
2022-12-25T07:49:57.310Z,156.20
2022-12-25T07:52:25.734Z,151.33
2022-12-25T07:54:54.128Z,166.10
2022-12-25T07:57:22.515Z,128.47
2022-12-25T07:59:51.033Z,177.07
2022-12-25T08:02:20.526Z,156.90
2022-12-25T08:04:49.050Z,147.70
2022-12-25T08:07:18.611Z,135.03
2022-12-25T08:09:47.039Z,148.03
2022-12-25T08:12:15.501Z,140.80
2022-12-25T08:14:43.900Z,179.03
2022-12-25T08:17:12.465Z,151.00
2022-12-25T08:19:40.968Z,147.03
2022-12-25T08:22:09.394Z,175.70
2022-12-25T08:24:38.972Z,153.33
2022-12-25T08:27:07.420Z,186.67
2022-12-25T08:29:35.846Z,162.27
2022-12-25T08:32:04.266Z,150.37
2022-12-25T08:34:32.690Z,172.70
2022-12-25T08:37:01.105Z,173.47
2022-12-25T08:39:29.590Z,157.07
2022-12-25T08:41:59.168Z,178.10
2022-12-25T08:44:27.376Z,162.77
2022-12-25T08:46:55.772Z,187.97
2022-12-25T08:49:27.380Z,153.07
2022-12-25T08:51:55.682Z,168.23
2022-12-25T08:54:24.813Z,163.30
2022-12-25T08:56:56.134Z,160.83
2022-12-25T08:59:31.797Z,161.43
2022-12-25T09:02:00.332Z,165.60
2022-12-25T09:04:28.739Z,170.73
2022-12-25T09:06:56.873Z,159.40
2022-12-25T09:09:28.338Z,171.50
2022-12-25T09:11:56.836Z,164.63
2022-12-25T09:14:25.258Z,157.83
2022-12-25T09:16:54.785Z,151.17
2022-12-25T09:19:23.183Z,134.40
2022-12-25T09:21:51.616Z,124.57
2022-12-25T09:24:20.638Z,141.73
2022-12-25T09:26:49.131Z,130.03
2022-12-25T09:29:18.017Z,140.77
2022-12-25T09:31:46.460Z,117.67
2022-12-25T09:34:18.920Z,120.43
2022-12-25T09:36:47.574Z,124.07
2022-12-25T09:39:15.714Z,111.00
2022-12-25T09:41:56.624Z,107.57
2022-12-25T09:44:28.090Z,108.07
2022-12-25T09:47:00.467Z,100.33
2022-12-25T09:49:38.079Z,110.43
2022-12-25T09:52:11.648Z,101.93
2022-12-25T09:54:50.998Z,118.67
2022-12-25T09:57:19.195Z,95.97
2022-12-25T09:59:47.825Z,104.50
2022-12-25T10:02:46.301Z,94.67
2022-12-25T10:05:46.929Z,99.70
2022-12-25T10:08:22.073Z,89.80
2022-12-25T10:10:53.708Z,105.90
2022-12-25T10:13:46.604Z,84.43
2022-12-25T10:16:22.112Z,84.70
2022-12-25T10:19:10.676Z,77.07
2022-12-25T10:21:40.410Z,68.00
2022-12-25T10:24:19.022Z,53.93
2022-12-25T10:26:47.545Z,51.47
2022-12-25T10:29:17.459Z,59.07
2022-12-25T10:31:47.626Z,39.87
2022-12-25T10:34:17.155Z,32.10
2022-12-25T10:36:47.852Z,36.00
2022-12-25T10:39:18.855Z,32.23
2022-12-25T10:42:13.954Z,35.60
2022-12-25T10:44:42.674Z,44.10
2022-12-25T10:47:10.942Z,34.83
2022-12-25T10:49:40.418Z,32.63
2022-12-25T10:52:21.543Z,27.20
2022-12-25T10:54:49.867Z,28.47
2022-12-25T10:57:19.897Z,25.00
2022-12-25T10:59:50.206Z,30.47
2022-12-25T11:02:24.963Z,34.27
2022-12-25T11:05:01.422Z,23.13
2022-12-25T11:07:32.209Z,20.67
2022-12-25T11:10:05.681Z,24.47
2022-12-25T11:12:38.140Z,28.33
2022-12-25T11:15:28.066Z,26.60
2022-12-25T11:17:56.284Z,38.90
2022-12-25T11:20:25.215Z,38.27
2022-12-25T11:22:55.151Z,27.60
2022-12-25T11:25:25.219Z,35.23
2022-12-25T11:27:59.512Z,41.33
2022-12-25T11:30:30.118Z,41.40
2022-12-25T11:33:00.807Z,42.93
2022-12-25T11:35:33.103Z,26.20
2022-12-25T11:38:04.462Z,24.57
2022-12-25T11:40:41.348Z,31.93
2022-12-25T11:43:15.556Z,28.93
2022-12-25T11:45:50.210Z,26.50
2022-12-25T11:48:24.647Z,22.73
2022-12-25T11:50:56.629Z,28.20
2022-12-25T11:53:30.421Z,28.07
2022-12-25T11:56:02.912Z,28.77
2022-12-25T11:58:34.616Z,21.83
2022-12-25T12:01:08.423Z,29.90
2022-12-25T12:03:39.051Z,31.10
2022-12-25T12:06:14.366Z,29.80
2022-12-25T12:08:45.133Z,30.30
2022-12-25T12:11:19.592Z,39.27
2022-12-25T12:14:00.743Z,30.83
2022-12-25T12:16:29.413Z,56.83
2022-12-25T12:18:57.708Z,34.17
2022-12-25T12:21:29.958Z,36.37
2022-12-25T12:24:06.692Z,47.07
2022-12-25T12:26:38.173Z,54.67
2022-12-25T12:29:09.229Z,53.73
2022-12-25T12:31:41.176Z,26.20
2022-12-25T12:34:21.961Z,26.20
2022-12-25T12:36:51.105Z,24.00
2022-12-25T12:39:26.910Z,26.23
2022-12-25T12:41:55.330Z,22.03
2022-12-25T12:44:26.541Z,26.93
2022-12-25T12:46:56.430Z,25.77
2022-12-25T12:49:26.662Z,24.50
2022-12-25T12:52:06.357Z,24.57
2022-12-25T12:54:57.599Z,26.77
2022-12-25T12:57:29.312Z,26.40
2022-12-25T13:00:04.760Z,26.30
2022-12-25T13:02:55.355Z,30.53
2022-12-25T13:05:35.228Z,32.93
2022-12-25T13:08:18.449Z,32.57
2022-12-25T13:10:50.423Z,32.63
2022-12-25T13:13:22.892Z,28.03
2022-12-25T13:15:52.355Z,32.70
2022-12-25T13:18:20.778Z,33.37
2022-12-25T13:20:55.136Z,38.37
2022-12-25T13:23:28.949Z,34.23
2022-12-25T13:26:00.154Z,31.03
2022-12-25T13:28:29.811Z,32.07
2022-12-25T13:31:06.544Z,27.57
2022-12-25T13:33:35.808Z,33.80
2022-12-25T13:36:04.320Z,30.13
2022-12-25T13:38:32.946Z,33.60
2022-12-25T13:41:20.342Z,31.50
2022-12-25T13:43:50.633Z,31.20
2022-12-25T13:46:27.866Z,37.00
2022-12-25T13:49:00.430Z,33.30
2022-12-25T13:51:29.812Z,32.20
2022-12-25T13:54:07.687Z,43.40
2022-12-25T13:56:46.205Z,38.17
2022-12-25T13:59:17.249Z,36.80
2022-12-25T14:01:45.844Z,34.73
2022-12-25T14:04:17.197Z,41.83
2022-12-25T14:06:45.762Z,35.77
2022-12-25T14:09:15.115Z,39.87
2022-12-25T14:11:47.748Z,31.53
2022-12-25T14:14:20.100Z,36.30
2022-12-25T14:16:50.399Z,43.87
2022-12-25T14:19:26.919Z,45.43
2022-12-25T14:22:00.434Z,43.77
2022-12-25T14:24:29.720Z,41.77
2022-12-25T14:27:01.599Z,42.00
2022-12-25T14:29:36.629Z,39.87
2022-12-25T14:32:07.599Z,44.27
2022-12-25T14:34:36.254Z,35.50
2022-12-25T14:37:19.235Z,41.07
2022-12-25T14:39:56.473Z,33.07
2022-12-25T14:42:28.125Z,35.33
2022-12-25T14:45:04.906Z,35.87
2022-12-25T14:47:40.148Z,38.00
2022-12-25T14:50:16.527Z,41.83
2022-12-25T14:52:46.146Z,37.37
2022-12-25T14:55:22.034Z,41.60
2022-12-25T14:57:55.549Z,41.37
2022-12-25T15:00:25.803Z,42.20
2022-12-25T15:02:56.321Z,44.40
2022-12-25T15:05:28.350Z,44.73
2022-12-25T15:08:05.150Z,42.97
2022-12-25T15:13:24.002Z,42.90
2022-12-25T15:15:56.847Z,45.00
2022-12-25T15:18:28.154Z,48.57
2022-12-25T15:20:56.980Z,46.13
2022-12-25T15:23:25.613Z,45.40
2022-12-25T15:25:53.994Z,48.50
2022-12-25T15:28:23.569Z,55.13
2022-12-25T15:30:52.051Z,48.53
2022-12-25T15:33:20.521Z,52.47
2022-12-25T15:35:48.936Z,55.63
2022-12-25T15:38:17.156Z,54.57
2022-12-25T15:40:45.438Z,48.37
2022-12-25T15:43:39.243Z,58.67
2022-12-25T15:46:04.996Z,60.60
2022-12-25T15:48:33.138Z,59.50
2022-12-25T15:51:01.255Z,59.87
2022-12-25T15:53:29.362Z,59.83
2022-12-25T15:55:57.615Z,59.17
2022-12-25T15:58:25.842Z,63.20
2022-12-25T16:00:54.031Z,66.20
2022-12-25T16:03:23.724Z,61.87
2022-12-25T16:05:51.953Z,59.83
2022-12-25T16:08:20.144Z,65.63
2022-12-25T16:10:48.539Z,67.50
2022-12-25T16:13:16.695Z,68.77
2022-12-25T16:15:45.273Z,74.30
2022-12-25T16:18:13.472Z,76.47
2022-12-25T16:20:43.469Z,67.80
2022-12-25T16:23:11.892Z,72.27
2022-12-25T16:25:40.083Z,78.37
2022-12-25T16:28:10.346Z,74.77
2022-12-25T16:30:39.369Z,80.27
2022-12-25T16:33:08.118Z,76.07
2022-12-25T16:35:36.338Z,74.63
2022-12-25T16:38:05.919Z,78.57
2022-12-25T16:40:34.358Z,74.33
2022-12-25T16:43:02.540Z,83.10
2022-12-25T16:45:30.700Z,79.90
2022-12-25T16:47:58.828Z,75.37
2022-12-25T16:50:27.030Z,76.63
2022-12-25T16:52:55.195Z,71.37
2022-12-25T16:55:29.658Z,80.37
2022-12-25T16:57:58.501Z,71.77
2022-12-25T17:00:27.008Z,70.63
2022-12-25T17:02:56.083Z,67.50
2022-12-25T17:05:24.747Z,72.73
2022-12-25T17:07:53.232Z,67.37
2022-12-25T17:10:23.163Z,74.13
2022-12-25T17:12:52.666Z,69.13
2022-12-25T17:15:20.882Z,70.73
2022-12-25T17:17:49.024Z,65.53
2022-12-25T17:20:17.344Z,72.90
2022-12-25T17:22:45.536Z,64.33
2022-12-25T17:25:13.689Z,62.53
2022-12-25T17:27:41.813Z,71.90
2022-12-25T17:30:12.462Z,71.97
2022-12-25T17:32:40.649Z,75.60
2022-12-25T17:35:09.459Z,66.13
2022-12-25T17:37:37.592Z,80.70
2022-12-25T17:40:09.278Z,77.83
2022-12-25T17:42:37.458Z,76.20
2022-12-25T17:45:06.462Z,79.33
2022-12-25T17:47:36.027Z,86.33
2022-12-25T17:50:04.421Z,77.40
2022-12-25T17:52:32.595Z,83.23
2022-12-25T17:55:00.785Z,78.70
2022-12-25T17:57:29.002Z,92.67
2022-12-25T17:59:57.203Z,85.63
2022-12-25T18:02:25.562Z,79.07
2022-12-25T18:04:55.349Z,82.77
2022-12-25T18:07:23.585Z,81.87
2022-12-25T18:09:51.838Z,81.23
2022-12-25T18:12:20.083Z,81.27
2022-12-25T18:14:48.245Z,82.23
2022-12-25T18:17:16.453Z,79.13
2022-12-25T18:19:44.603Z,83.53
2022-12-25T18:22:14.258Z,81.67
2022-12-25T18:24:42.533Z,81.00
2022-12-25T18:27:11.054Z,79.93
2022-12-25T18:29:43.677Z,81.07
2022-12-25T18:32:11.927Z,88.20
2022-12-25T18:34:40.073Z,83.73
2022-12-25T18:37:08.262Z,100.67
2022-12-25T18:39:37.843Z,103.60
2022-12-25T18:42:23.787Z,115.53
2022-12-25T18:44:51.945Z,100.53
2022-12-25T18:47:20.365Z,106.60
2022-12-25T18:49:48.675Z,111.20
2022-12-25T18:52:49.304Z,121.97
2022-12-25T18:55:07.446Z,117.67
2022-12-25T18:57:35.927Z,117.40
2022-12-25T19:00:05.155Z,129.40
2022-12-25T19:02:33.546Z,145.37
2022-12-25T19:05:01.810Z,146.03
2022-12-25T19:07:30.039Z,162.43
2022-12-25T19:09:58.459Z,145.23
2022-12-25T19:12:28.177Z,146.23
2022-12-25T19:14:56.355Z,158.53
2022-12-25T19:17:31.876Z,155.93
2022-12-25T19:20:00.774Z,168.27
2022-12-25T19:22:29.299Z,192.10
2022-12-25T19:24:57.618Z,185.20
2022-12-25T19:27:27.217Z,174.47
2022-12-25T19:29:55.400Z,194.83
2022-12-25T19:32:23.555Z,194.03
2022-12-25T19:34:51.795Z,183.03
2022-12-25T19:37:19.915Z,170.67
2022-12-25T19:39:48.490Z,206.50
2022-12-25T19:42:18.931Z,227.53
2022-12-25T19:44:50.625Z,185.97
2022-12-25T19:47:18.781Z,150.87
2022-12-25T19:49:52.571Z,173.43
2022-12-25T19:52:21.391Z,221.57
2022-12-25T19:54:52.268Z,147.83
2022-12-25T19:57:20.635Z,197.87
2022-12-25T19:59:51.797Z,200.40
2022-12-25T20:02:20.066Z,178.97
2022-12-25T20:04:48.452Z,180.17
2022-12-25T20:07:16.719Z,147.70
2022-12-25T20:09:44.904Z,182.77
2022-12-25T20:12:15.065Z,208.00
2022-12-25T20:14:44.545Z,165.27
2022-12-25T20:17:16.165Z,167.90
2022-12-25T20:19:44.798Z,141.67
2022-12-25T20:22:15.877Z,175.63
2022-12-25T20:24:44.522Z,187.40
2022-12-25T20:27:12.673Z,188.23
2022-12-25T20:29:40.867Z,176.53
2022-12-25T20:32:09.524Z,189.30
2022-12-25T20:34:39.306Z,177.80
2022-12-25T20:37:07.482Z,166.47
2022-12-25T20:39:35.669Z,170.00
2022-12-25T20:42:03.878Z,162.07
2022-12-25T20:44:32.199Z,151.60
2022-12-25T20:47:03.438Z,181.63
2022-12-25T20:49:32.701Z,161.73
2022-12-25T20:52:05.575Z,171.33
2022-12-25T20:54:34.426Z,174.23
2022-12-25T20:57:02.660Z,193.13
2022-12-25T20:59:36.916Z,161.30
2022-12-25T21:02:05.618Z,179.20
2022-12-25T21:04:34.000Z,155.97
2022-12-25T21:07:03.707Z,166.43
2022-12-25T21:09:32.015Z,140.53
2022-12-25T21:12:00.216Z,137.97
2022-12-25T21:14:29.594Z,140.43
2022-12-25T21:16:57.834Z,149.67
2022-12-25T21:19:26.118Z,134.90
2022-12-25T21:21:54.530Z,152.33
2022-12-25T21:24:24.126Z,159.90
2022-12-25T21:26:52.336Z,164.27
2022-12-25T21:29:22.956Z,142.17
2022-12-25T21:32:08.663Z,144.13
2022-12-25T21:34:37.009Z,137.83
2022-12-25T21:37:05.253Z,152.90
2022-12-25T21:39:37.416Z,138.33
2022-12-25T21:42:05.724Z,120.30
2022-12-25T21:44:33.946Z,132.97
2022-12-25T21:47:04.165Z,120.03
2022-12-25T21:49:52.105Z,110.87
2022-12-25T21:52:20.586Z,131.70
2022-12-25T21:54:52.740Z,125.47
2022-12-25T21:57:21.243Z,114.50
2022-12-25T21:59:49.743Z,110.17
2022-12-25T22:02:18.132Z,121.17
2022-12-25T22:04:46.476Z,96.90
2022-12-25T22:07:20.004Z,113.00
2022-12-25T22:09:51.202Z,133.37
2022-12-25T22:12:38.926Z,104.07
2022-12-25T22:15:09.720Z,133.50
2022-12-25T22:17:57.036Z,104.43
2022-12-25T22:20:27.715Z,90.07
2022-12-25T22:22:56.202Z,106.37
2022-12-25T22:25:26.094Z,92.97
2022-12-25T22:27:54.774Z,100.40
2022-12-25T22:30:25.541Z,94.10
2022-12-25T22:32:54.288Z,110.23
2022-12-25T22:35:23.062Z,99.77
2022-12-25T22:37:51.463Z,106.50
2022-12-25T22:40:21.325Z,108.27
2022-12-25T22:42:50.887Z,114.47
2022-12-25T22:45:19.154Z,106.80
2022-12-25T22:47:47.324Z,99.53
2022-12-25T22:50:16.243Z,101.73
2022-12-25T22:52:45.819Z,106.30
2022-12-25T22:55:18.350Z,99.00
2022-12-25T22:57:46.655Z,98.07
2022-12-25T23:00:16.569Z,101.00
2022-12-25T23:02:45.017Z,116.77
2022-12-25T23:05:13.288Z,97.10
2022-12-25T23:07:41.817Z,112.67
2022-12-25T23:10:11.279Z,115.73
2022-12-25T23:12:57.344Z,124.63
2022-12-25T23:15:27.759Z,111.10
2022-12-25T23:18:13.323Z,117.80
2022-12-25T23:20:58.782Z,119.20
2022-12-25T23:23:44.149Z,131.17
2022-12-25T23:26:12.613Z,117.30
2022-12-25T23:29:00.610Z,120.10
2022-12-25T23:31:33.664Z,119.47
2022-12-25T23:34:02.757Z,123.83
2022-12-25T23:36:30.926Z,105.47
2022-12-25T23:39:04.745Z,124.63
2022-12-25T23:41:37.067Z,111.97
2022-12-25T23:44:05.693Z,105.73
2022-12-25T23:46:35.292Z,118.40
2022-12-25T23:49:03.487Z,111.83
2022-12-25T23:51:31.734Z,117.43
2022-12-25T23:53:59.912Z,113.80
2022-12-25T23:56:28.082Z,126.30
2022-12-25T23:58:56.239Z,120.50
